createdAt,value
2018-03-25T00:41:14.859Z,28.87
2018-03-25T00:43:44.041Z,30.98
2018-03-25T00:46:15.759Z,30.27
2018-03-25T00:48:44.260Z,29.60
2018-03-25T00:51:13.548Z,34.53
2018-03-25T00:53:42.015Z,34.45
2018-03-25T00:56:10.579Z,33.50
2018-03-25T00:58:39.009Z,33.35
2018-03-25T01:01:14.529Z,33.05
2018-03-25T01:03:43.257Z,29.12
2018-03-25T01:06:12.252Z,29.80
2018-03-25T01:08:40.816Z,29.55
2018-03-25T01:11:09.243Z,32.00
2018-03-25T01:13:37.623Z,31.17
2018-03-25T01:16:14.268Z,31.75
2018-03-25T01:18:42.851Z,31.40
2018-03-25T01:21:11.461Z,27.77
2018-03-25T01:23:39.882Z,31.70
2018-03-25T01:26:08.611Z,27.65
2018-03-25T01:28:36.985Z,33.22
2018-03-25T01:31:06.129Z,33.55
2018-03-25T01:33:34.489Z,22.10
2018-03-25T01:36:02.925Z,29.98
2018-03-25T01:38:31.714Z,28.08
2018-03-25T01:41:00.073Z,52.35
2018-03-25T01:43:28.683Z,30.25
2018-03-25T01:45:57.758Z,38.17
2018-03-25T01:48:26.118Z,27.35
2018-03-25T01:50:54.494Z,27.60
2018-03-25T01:53:23.697Z,36.15
2018-03-25T01:55:53.543Z,22.48
2018-03-25T01:58:21.931Z,29.10
2018-03-25T02:00:51.022Z,25.10
2018-03-25T02:03:19.617Z,26.92
2018-03-25T02:05:48.197Z,29.05
2018-03-25T02:08:16.873Z,28.87
2018-03-25T02:10:45.320Z,25.95
2018-03-25T02:13:13.938Z,27.23
2018-03-25T02:15:43.249Z,29.05
2018-03-25T02:18:11.733Z,24.92
2018-03-25T02:20:40.118Z,25.00
2018-03-25T02:23:08.642Z,28.92
2018-03-25T02:25:37.023Z,28.12
2018-03-25T02:28:05.398Z,27.10
2018-03-25T02:30:34.630Z,26.23
2018-03-25T02:33:03.018Z,22.70
2018-03-25T02:35:31.378Z,24.98
2018-03-25T02:38:00.242Z,31.55
2018-03-25T02:40:28.628Z,28.77
2018-03-25T02:42:57.587Z,23.90
2018-03-25T02:45:25.999Z,26.48
2018-03-25T02:47:54.369Z,24.05
2018-03-25T02:50:22.746Z,26.30
2018-03-25T02:52:51.229Z,20.00
2018-03-25T02:55:19.803Z,23.90
2018-03-25T02:57:48.505Z,27.60
2018-03-25T03:00:17.583Z,22.08
2018-03-25T03:02:45.973Z,24.85
2018-03-25T03:05:14.556Z,24.33
2018-03-25T03:07:43.049Z,23.87
2018-03-25T03:10:12.572Z,26.52
2018-03-25T03:12:40.929Z,24.40
2018-03-25T03:15:09.396Z,25.12
2018-03-25T03:17:38.611Z,25.55
2018-03-25T03:20:06.992Z,22.48
2018-03-25T03:22:35.453Z,26.30
2018-03-25T03:25:03.852Z,30.33
2018-03-25T03:27:32.214Z,21.30
2018-03-25T03:30:00.635Z,23.38
2018-03-25T03:32:29.005Z,34.33
2018-03-25T03:34:57.376Z,19.75
2018-03-25T03:37:25.737Z,22.02
2018-03-25T03:39:54.101Z,20.62
2018-03-25T03:42:22.449Z,23.98
2018-03-25T03:44:50.883Z,21.10
2018-03-25T03:47:19.255Z,24.80
2018-03-25T03:49:47.701Z,25.55
2018-03-25T03:52:16.958Z,23.05
2018-03-25T03:54:45.571Z,25.92
2018-03-25T03:57:14.357Z,23.33
2018-03-25T03:59:43.962Z,24.12
2018-03-25T04:02:12.489Z,21.45
2018-03-25T04:04:42.176Z,23.95
2018-03-25T04:07:10.665Z,21.23
2018-03-25T04:09:39.028Z,20.08
2018-03-25T04:12:07.401Z,27.75
2018-03-25T04:14:35.874Z,22.23
2018-03-25T04:17:04.268Z,23.87
2018-03-25T04:19:32.786Z,26.67
2018-03-25T04:22:02.549Z,22.62
2018-03-25T04:24:30.895Z,24.23
2018-03-25T04:26:59.253Z,27.17
2018-03-25T04:29:27.625Z,24.67
2018-03-25T04:31:56.057Z,23.30
2018-03-25T04:34:24.397Z,24.77
2018-03-25T04:36:53.022Z,27.05
2018-03-25T04:39:21.743Z,25.65
2018-03-25T04:41:50.133Z,27.60
2018-03-25T04:44:18.884Z,22.40
2018-03-25T04:46:47.298Z,21.40
2018-03-25T04:49:15.676Z,24.17
2018-03-25T04:51:44.227Z,35.15
2018-03-25T04:54:12.705Z,24.40
2018-03-25T04:56:41.428Z,24.25
2018-03-25T04:59:10.845Z,25.02
2018-03-25T05:01:39.242Z,23.20
2018-03-25T05:04:07.596Z,27.35
2018-03-25T05:06:35.970Z,25.80
2018-03-25T05:09:04.353Z,20.10
2018-03-25T05:11:32.722Z,23.87
2018-03-25T05:14:01.114Z,28.92
2018-03-25T05:16:29.826Z,24.63
2018-03-25T05:18:58.224Z,26.35
2018-03-25T05:21:27.376Z,22.17
2018-03-25T05:23:55.725Z,22.70
2018-03-25T05:26:24.075Z,24.65
2018-03-25T05:28:52.987Z,24.95
2018-03-25T05:31:21.637Z,27.13
2018-03-25T05:33:50.005Z,25.05
2018-03-25T05:36:18.612Z,25.88
2018-03-25T05:38:47.347Z,23.00
2018-03-25T05:41:15.708Z,25.90
2018-03-25T05:43:44.983Z,25.27
2018-03-25T05:46:13.409Z,22.85
2018-03-25T05:48:41.762Z,22.98
2018-03-25T05:51:10.242Z,27.35
2018-03-25T05:53:38.616Z,26.48
2018-03-25T05:56:07.015Z,21.48
2018-03-25T05:58:36.326Z,19.98
2018-03-25T06:01:04.711Z,30.67
2018-03-25T06:03:33.112Z,28.30
2018-03-25T06:06:02.208Z,20.90
2018-03-25T06:08:30.560Z,23.52
2018-03-25T06:10:58.933Z,22.95
2018-03-25T06:13:27.653Z,23.08
2018-03-25T06:15:56.083Z,27.70
2018-03-25T06:18:24.425Z,25.98
2018-03-25T06:20:52.842Z,20.77
2018-03-25T06:23:21.257Z,26.52
2018-03-25T06:25:50.146Z,26.45
2018-03-25T06:28:18.607Z,28.58
2018-03-25T06:30:47.297Z,23.20
2018-03-25T06:33:16.114Z,21.92
2018-03-25T06:35:44.852Z,26.40
2018-03-25T06:38:13.276Z,24.55
2018-03-25T06:40:41.737Z,22.02
2018-03-25T06:43:10.218Z,27.52
2018-03-25T06:45:39.169Z,27.05
2018-03-25T06:48:07.530Z,28.67
2018-03-25T06:50:35.905Z,24.85
2018-03-25T06:53:04.333Z,30.48
2018-03-25T06:55:32.722Z,27.42
2018-03-25T06:58:01.955Z,28.17
2018-03-25T07:00:30.303Z,23.35
2018-03-25T07:02:58.662Z,27.02
2018-03-25T07:05:27.225Z,24.30
2018-03-25T07:07:55.644Z,27.27
2018-03-25T07:10:24.124Z,26.60
2018-03-25T07:12:52.523Z,24.20
2018-03-25T07:15:20.910Z,28.00
2018-03-25T07:17:49.479Z,25.42
2018-03-25T07:20:17.972Z,26.75
2018-03-25T07:22:46.556Z,23.45
2018-03-25T07:25:15.309Z,25.77
2018-03-25T07:27:44.594Z,26.05
2018-03-25T07:30:12.990Z,26.25
2018-03-25T07:32:41.422Z,25.90
2018-03-25T07:35:10.049Z,25.92
2018-03-25T07:37:38.517Z,28.55
2018-03-25T07:40:06.827Z,31.42
2018-03-25T07:42:35.242Z,28.27
2018-03-25T07:45:03.660Z,33.63
2018-03-25T07:47:32.145Z,28.45
2018-03-25T07:50:01.715Z,27.17
2018-03-25T07:52:30.177Z,26.87
2018-03-25T07:54:58.629Z,27.37
2018-03-25T07:57:27.360Z,24.70
2018-03-25T07:59:55.778Z,22.70
2018-03-25T08:02:24.216Z,24.58
2018-03-25T08:04:53.126Z,27.40
2018-03-25T08:07:21.753Z,27.48
2018-03-25T08:09:51.449Z,28.00
2018-03-25T08:12:21.150Z,29.10
2018-03-25T08:14:49.764Z,29.40
2018-03-25T08:17:18.328Z,28.67
2018-03-25T08:19:48.323Z,26.30
2018-03-25T08:22:16.982Z,26.42
2018-03-25T08:24:45.425Z,27.40
2018-03-25T08:27:14.205Z,30.77
2018-03-25T08:29:42.864Z,23.67
2018-03-25T08:32:11.607Z,29.27
2018-03-25T08:34:40.151Z,24.87
2018-03-25T08:37:08.521Z,28.40
2018-03-25T08:39:37.060Z,41.40
2018-03-25T08:42:05.920Z,32.72
2018-03-25T08:44:34.306Z,23.23
2018-03-25T08:47:02.870Z,26.17
2018-03-25T08:49:31.260Z,28.35
2018-03-25T08:51:59.624Z,23.87
2018-03-25T08:54:27.998Z,26.67
2018-03-25T08:56:56.508Z,26.62
2018-03-25T08:59:24.864Z,28.92
2018-03-25T09:01:53.377Z,27.60
2018-03-25T09:04:22.032Z,34.22
2018-03-25T09:06:50.433Z,29.15
2018-03-25T09:09:19.099Z,26.65
2018-03-25T09:11:47.814Z,28.55
2018-03-25T09:14:16.563Z,35.20
2018-03-25T09:16:44.998Z,26.08
2018-03-25T09:19:14.573Z,30.75
2018-03-25T09:21:43.764Z,32.03
2018-03-25T09:24:13.008Z,26.33
2018-03-25T09:26:41.791Z,25.85
2018-03-25T09:29:10.228Z,30.42
2018-03-25T09:31:38.802Z,26.80
2018-03-25T09:34:07.619Z,26.10
2018-03-25T09:36:36.340Z,25.77
2018-03-25T09:39:04.712Z,27.23
2018-03-25T09:41:33.444Z,27.58
2018-03-25T09:44:01.916Z,26.48
2018-03-25T09:46:30.543Z,28.70
2018-03-25T09:48:58.995Z,29.27
2018-03-25T09:51:27.596Z,34.42
2018-03-25T09:53:55.992Z,27.73
2018-03-25T09:56:24.465Z,35.80
2018-03-25T09:58:53.431Z,29.73
2018-03-25T10:01:28.112Z,41.50
2018-03-25T10:03:56.672Z,30.08
2018-03-25T10:06:25.418Z,33.88
2018-03-25T10:08:54.273Z,28.75
2018-03-25T10:11:22.937Z,31.37
2018-03-25T10:13:51.728Z,32.33
2018-03-25T10:16:21.245Z,28.48
2018-03-25T10:18:50.201Z,30.17
2018-03-25T10:21:18.790Z,29.33
2018-03-25T10:23:47.586Z,30.37
2018-03-25T10:26:17.872Z,27.92
2018-03-25T10:28:46.783Z,33.03
2018-03-25T10:31:16.272Z,27.75
2018-03-25T10:33:45.983Z,29.85
2018-03-25T10:36:14.945Z,28.42
2018-03-25T10:38:44.704Z,24.58
2018-03-25T10:41:14.324Z,28.62
2018-03-25T10:43:43.610Z,29.85
2018-03-25T10:46:13.216Z,28.23
2018-03-25T10:48:42.881Z,29.25
2018-03-25T10:51:11.398Z,28.27
2018-03-25T10:53:39.918Z,29.37
2018-03-25T10:56:08.600Z,28.73
2018-03-25T10:58:37.353Z,28.12
2018-03-25T11:01:06.059Z,26.08
2018-03-25T11:03:35.189Z,29.87
2018-03-25T11:06:04.027Z,29.13
2018-03-25T11:08:33.301Z,25.60
2018-03-25T11:11:01.814Z,30.93
2018-03-25T11:13:30.169Z,27.25
2018-03-25T11:15:59.935Z,28.73
2018-03-25T11:18:28.364Z,31.93
2018-03-25T11:20:56.892Z,26.65
2018-03-25T11:23:25.776Z,30.10
2018-03-25T11:25:55.101Z,27.77
2018-03-25T11:28:23.983Z,32.45
2018-03-25T11:30:53.030Z,30.67
2018-03-25T11:33:22.510Z,27.13
2018-03-25T11:35:51.525Z,29.87
2018-03-25T11:38:20.957Z,30.30
2018-03-25T11:40:50.178Z,28.10
2018-03-25T11:43:18.899Z,31.90
2018-03-25T11:45:48.330Z,31.23
2018-03-25T11:48:16.834Z,30.13
2018-03-25T11:50:45.374Z,33.93
2018-03-25T11:53:14.122Z,27.87
2018-03-25T11:55:43.969Z,29.03
2018-03-25T11:58:16.354Z,36.33
2018-03-25T12:00:45.037Z,33.30
2018-03-25T12:03:13.753Z,29.52
2018-03-25T12:05:42.209Z,28.98
2018-03-25T12:08:11.473Z,28.27
2018-03-25T12:10:39.885Z,38.55
2018-03-25T12:13:08.284Z,35.70
2018-03-25T12:15:36.762Z,33.20
2018-03-25T12:18:05.237Z,33.13
2018-03-25T12:20:33.613Z,30.35
2018-03-25T12:23:02.065Z,28.65
2018-03-25T12:25:30.497Z,28.62
2018-03-25T12:27:59.855Z,33.15
2018-03-25T12:30:28.917Z,27.55
2018-03-25T12:35:30.978Z,30.85
2018-03-25T12:37:59.847Z,36.35
2018-03-25T12:40:28.248Z,29.80
2018-03-25T12:42:58.590Z,31.58
2018-03-25T12:45:27.153Z,33.40
2018-03-25T12:47:58.651Z,32.00
2018-03-25T12:50:27.950Z,30.73
2018-03-25T12:52:56.851Z,32.05
2018-03-25T12:55:25.533Z,36.35
2018-03-25T12:57:55.096Z,28.58
2018-03-25T13:00:25.478Z,32.60
2018-03-25T13:02:53.992Z,37.10
2018-03-25T13:05:22.995Z,30.77
2018-03-25T13:07:52.297Z,30.35
2018-03-25T13:10:21.285Z,47.42
2018-03-25T13:12:50.570Z,37.60
2018-03-25T13:15:20.324Z,35.80
2018-03-25T13:17:49.217Z,31.37
2018-03-25T13:20:18.333Z,34.35
2018-03-25T13:22:47.647Z,31.57
2018-03-25T13:25:16.930Z,35.57
2018-03-25T13:27:45.774Z,32.10
2018-03-25T13:30:14.382Z,36.53
2018-03-25T13:32:43.066Z,33.77
2018-03-25T13:35:11.721Z,39.75
2018-03-25T13:37:40.211Z,30.43
2018-03-25T13:40:08.693Z,30.60
2018-03-25T13:42:37.288Z,36.78
2018-03-25T13:45:05.718Z,37.33
2018-03-25T13:47:34.124Z,29.17
2018-03-25T13:50:03.015Z,32.90
2018-03-25T13:52:31.501Z,31.67
2018-03-25T13:54:59.991Z,37.10
2018-03-25T13:57:28.758Z,34.47
2018-03-25T13:59:57.283Z,33.77
2018-03-25T14:02:25.725Z,31.37
2018-03-25T14:04:55.487Z,31.87
2018-03-25T14:07:24.127Z,31.73
2018-03-25T14:09:52.810Z,29.40
2018-03-25T14:12:22.790Z,33.70
2018-03-25T14:14:51.394Z,31.47
2018-03-25T14:17:19.870Z,31.83
2018-03-25T14:19:48.889Z,35.43
2018-03-25T14:22:17.338Z,36.13
2018-03-25T14:24:45.879Z,32.63
2018-03-25T14:27:14.597Z,34.73
2018-03-25T14:29:44.300Z,35.27
2018-03-25T14:32:13.148Z,31.13
2018-03-25T14:34:43.335Z,31.43
2018-03-25T14:37:13.230Z,33.47
2018-03-25T14:39:42.125Z,31.03
2018-03-25T14:42:10.630Z,30.63
2018-03-25T14:44:39.068Z,33.07
2018-03-25T14:47:08.454Z,35.07
2018-03-25T14:49:36.986Z,29.30
2018-03-25T14:52:05.445Z,31.87
2018-03-25T14:54:33.897Z,31.13
2018-03-25T14:57:03.990Z,30.77
2018-03-25T14:59:32.709Z,36.43
2018-03-25T15:02:01.378Z,34.37
2018-03-25T15:04:29.892Z,34.87
2018-03-25T15:06:58.283Z,40.23
2018-03-25T15:09:27.319Z,32.40
2018-03-25T15:11:57.750Z,31.93
2018-03-25T15:14:26.271Z,36.45
2018-03-25T15:16:54.689Z,33.70
2018-03-25T15:19:24.459Z,34.27
2018-03-25T15:21:52.906Z,34.00
2018-03-25T15:24:21.383Z,34.17
2018-03-25T15:26:50.232Z,30.42
2018-03-25T15:29:18.670Z,30.70
2018-03-25T15:31:47.188Z,39.47
2018-03-25T15:34:18.032Z,34.75
2018-03-25T15:36:46.744Z,33.42
2018-03-25T15:39:15.221Z,33.08
2018-03-25T15:41:43.990Z,33.85
2018-03-25T15:44:12.494Z,35.60
2018-03-25T15:46:41.190Z,33.88
2018-03-25T15:49:09.650Z,43.67
2018-03-25T15:51:38.028Z,46.10
2018-03-25T15:54:06.449Z,48.65
2018-03-25T15:56:35.277Z,67.57
2018-03-25T15:59:03.681Z,64.03
2018-03-25T16:01:32.043Z,54.38
2018-03-25T16:04:01.542Z,74.12
2018-03-25T16:06:29.988Z,82.03
2018-03-25T16:08:58.390Z,56.60
2018-03-25T16:11:26.821Z,43.00
2018-03-25T16:13:55.231Z,36.38
2018-03-25T16:16:23.805Z,36.15
2018-03-25T16:18:52.413Z,38.05
2018-03-25T16:21:20.866Z,34.83
2018-03-25T16:23:50.385Z,34.60
2018-03-25T16:26:19.628Z,35.53
2018-03-25T16:28:48.282Z,39.65
2018-03-25T16:31:16.813Z,37.22
2018-03-25T16:33:45.467Z,34.78
2018-03-25T16:36:14.166Z,36.22
2018-03-25T16:38:42.819Z,38.97
2018-03-25T16:41:13.220Z,41.22
2018-03-25T16:43:41.748Z,44.58
2018-03-25T16:46:10.122Z,36.90
2018-03-25T16:48:38.837Z,49.88
2018-03-25T16:51:07.281Z,35.72
2018-03-25T16:53:36.887Z,35.88
2018-03-25T16:56:05.370Z,46.42
2018-03-25T16:58:33.770Z,47.80
2018-03-25T17:01:02.295Z,44.55
2018-03-25T17:03:30.747Z,38.67
2018-03-25T17:05:59.269Z,47.38
2018-03-25T17:08:28.604Z,44.40
2018-03-25T17:10:57.246Z,38.67
2018-03-25T17:13:25.712Z,42.97
2018-03-25T17:15:54.218Z,41.97
2018-03-25T17:18:23.541Z,45.55
2018-03-25T17:20:52.217Z,46.85
2018-03-25T17:23:20.916Z,48.03
2018-03-25T17:25:50.303Z,42.67
2018-03-25T17:28:18.743Z,42.25
2018-03-25T17:30:47.438Z,46.63
2018-03-25T17:33:16.246Z,47.22
2018-03-25T17:35:44.847Z,45.58
2018-03-25T17:38:13.370Z,43.97
2018-03-25T17:40:42.340Z,43.55
2018-03-25T17:43:10.979Z,48.25
2018-03-25T17:45:39.621Z,44.30
2018-03-25T17:48:08.628Z,49.28
2018-03-25T17:50:37.089Z,51.80
2018-03-25T17:53:05.554Z,52.83
2018-03-25T17:55:34.024Z,49.67
2018-03-25T17:58:02.514Z,55.97
2018-03-25T18:00:30.920Z,56.65
2018-03-25T18:03:00.443Z,53.80
2018-03-25T18:05:28.857Z,55.55
2018-03-25T18:07:57.291Z,50.12
2018-03-25T18:10:26.566Z,55.70
2018-03-25T18:12:55.065Z,57.17
2018-03-25T18:15:23.551Z,54.47
2018-03-25T18:17:52.662Z,56.17
2018-03-25T18:20:21.728Z,56.58
2018-03-25T18:22:50.742Z,52.42
2018-03-25T18:25:20.419Z,51.50
2018-03-25T18:27:49.763Z,58.40
2018-03-25T18:30:18.666Z,67.72
2018-03-25T18:32:48.049Z,60.83
2018-03-25T18:35:17.635Z,64.15
2018-03-25T18:37:46.543Z,58.20
2018-03-25T18:40:16.823Z,63.75
2018-03-25T18:42:45.898Z,62.75
2018-03-25T18:45:15.703Z,67.22
2018-03-25T18:47:46.374Z,67.97
2018-03-25T18:50:15.458Z,65.00
2018-03-25T18:52:44.118Z,72.82
2018-03-25T18:55:14.007Z,76.68
2018-03-25T18:57:43.826Z,70.65
2018-03-25T19:00:12.512Z,74.87
2018-03-25T19:02:43.294Z,74.57
2018-03-25T19:05:12.233Z,75.22
2018-03-25T19:07:40.830Z,80.25
2018-03-25T19:10:09.449Z,84.10
2018-03-25T19:12:38.959Z,78.78
2018-03-25T19:15:07.334Z,89.25
2018-03-25T19:17:36.720Z,88.60
2018-03-25T19:20:05.216Z,92.68
2018-03-25T19:22:33.977Z,85.72
2018-03-25T19:25:02.701Z,93.62
2018-03-25T19:27:31.149Z,89.40
2018-03-25T19:29:59.789Z,85.97
2018-03-25T19:32:28.748Z,88.22
2018-03-25T19:34:57.298Z,87.10
2018-03-25T19:37:25.884Z,90.47
2018-03-25T19:39:54.599Z,94.45
2018-03-25T19:42:23.730Z,81.47
2018-03-25T19:44:52.551Z,86.05
2018-03-25T19:47:21.465Z,90.00
2018-03-25T19:49:50.215Z,82.32
2018-03-25T19:52:18.887Z,97.15
2018-03-25T19:54:49.876Z,84.95
2018-03-25T19:57:18.330Z,88.47
2018-03-25T19:59:47.072Z,76.28
2018-03-25T20:02:16.288Z,83.43
2018-03-25T20:04:44.731Z,80.12
2018-03-25T20:07:13.227Z,82.15
2018-03-25T20:09:41.730Z,71.75
2018-03-25T20:12:10.286Z,75.50
2018-03-25T20:14:38.708Z,85.78
2018-03-25T20:17:07.151Z,79.82
2018-03-25T20:19:35.589Z,74.30
2018-03-25T20:22:03.960Z,67.32
2018-03-25T20:24:32.639Z,62.38
2018-03-25T20:27:01.065Z,73.72
2018-03-25T20:29:29.576Z,70.12
2018-03-25T20:31:58.028Z,66.95
2018-03-25T20:34:26.432Z,71.55
2018-03-25T20:36:54.874Z,71.87
2018-03-25T20:42:15.395Z,73.47
2018-03-25T20:44:44.023Z,77.60
2018-03-25T20:47:12.493Z,73.93
2018-03-25T20:49:42.005Z,69.20
2018-03-25T20:52:10.447Z,77.20
2018-03-25T20:54:39.064Z,78.45
2018-03-25T20:57:07.926Z,76.62
2018-03-25T20:59:36.350Z,78.35
2018-03-25T21:02:04.770Z,66.97
2018-03-25T21:04:33.299Z,68.60
2018-03-25T21:07:01.698Z,79.70
2018-03-25T21:09:30.480Z,70.75
2018-03-25T21:11:59.490Z,80.43
2018-03-25T21:14:27.894Z,77.90
2018-03-25T21:16:56.328Z,74.53
2018-03-25T21:19:25.900Z,84.53
2018-03-25T21:21:54.424Z,80.65
2018-03-25T21:24:22.960Z,75.22
2018-03-25T21:26:52.622Z,77.10
2018-03-25T21:29:21.257Z,73.72
2018-03-25T21:31:49.728Z,75.43
2018-03-25T21:34:18.494Z,73.47
2018-03-25T21:36:47.102Z,86.10
2018-03-25T21:39:15.619Z,76.65
2018-03-25T21:41:44.115Z,78.35
2018-03-25T21:44:12.816Z,82.95
2018-03-25T21:46:41.357Z,86.15
2018-03-25T21:49:10.485Z,95.18
2018-03-25T21:51:39.699Z,78.40
2018-03-25T21:54:08.237Z,84.20
2018-03-25T21:56:37.145Z,83.75
2018-03-25T21:59:05.531Z,84.00
2018-03-25T22:01:33.971Z,91.45
2018-03-25T22:04:02.427Z,91.68
2018-03-25T22:06:30.899Z,90.75
2018-03-25T22:08:59.318Z,106.80
2018-03-25T22:11:28.942Z,91.63
2018-03-25T22:13:57.442Z,103.15
2018-03-25T22:16:25.918Z,94.65
2018-03-25T22:19:01.645Z,106.20
2018-03-25T22:21:31.330Z,100.43
2018-03-25T22:23:59.780Z,98.03
2018-03-25T22:26:28.775Z,108.60
2018-03-25T22:28:57.604Z,96.95
2018-03-25T22:31:26.762Z,100.00
2018-03-25T22:33:55.423Z,99.70
2018-03-25T22:36:24.321Z,102.60
2018-03-25T22:38:52.893Z,102.85
2018-03-25T22:41:21.446Z,106.75
2018-03-25T22:43:50.191Z,111.72
2018-03-25T22:46:18.817Z,105.05
2018-03-25T22:48:47.272Z,105.97
2018-03-25T22:51:16.627Z,103.82
2018-03-25T22:53:44.997Z,107.65
2018-03-25T22:56:13.412Z,117.05
2018-03-25T22:58:42.259Z,99.20
2018-03-25T23:01:10.934Z,100.53
2018-03-25T23:03:46.440Z,112.88
2018-03-25T23:06:14.958Z,95.28
2018-03-25T23:08:43.338Z,113.30
2018-03-25T23:11:13.662Z,117.25
2018-03-25T23:13:42.175Z,105.90
2018-03-25T23:16:10.933Z,104.38
2018-03-25T23:18:39.369Z,95.80
2018-03-25T23:21:07.815Z,102.00
2018-03-25T23:23:36.819Z,101.18
2018-03-25T23:26:06.929Z,107.18
2018-03-25T23:28:35.515Z,111.12
2018-03-25T23:31:03.953Z,121.87
2018-03-25T23:33:33.108Z,98.25
2018-03-25T23:36:01.605Z,101.15
2018-03-25T23:38:30.292Z,101.62
2018-03-25T23:40:59.014Z,108.40
2018-03-25T23:43:27.495Z,103.90
2018-03-25T23:45:56.446Z,102.35
2018-03-25T23:48:25.330Z,116.40
2018-03-25T23:50:54.119Z,107.28
2018-03-25T23:53:23.687Z,119.18
2018-03-25T23:55:52.315Z,107.10
2018-03-25T23:58:20.809Z,104.47
